createdAt,value
2023-04-21T00:00:27.926Z,14.83
2023-04-21T00:02:56.556Z,15.07
2023-04-21T00:05:25.280Z,14.73
2023-04-21T00:07:53.892Z,15.00
2023-04-21T00:10:22.497Z,15.20
2023-04-21T00:12:52.391Z,15.43
2023-04-21T00:15:20.874Z,15.27
2023-04-21T00:17:49.244Z,14.43
2023-04-21T00:20:17.632Z,15.33
2023-04-21T00:22:46.184Z,14.70
2023-04-21T00:25:15.209Z,14.70
2023-04-21T00:27:43.517Z,15.67
2023-04-21T00:30:13.734Z,14.87
2023-04-21T00:32:42.096Z,15.30
2023-04-21T00:35:10.941Z,15.03
2023-04-21T00:37:40.392Z,15.40
2023-04-21T00:40:09.502Z,15.77
2023-04-21T00:42:37.982Z,16.00
2023-04-21T00:45:06.942Z,16.10
2023-04-21T00:47:36.948Z,16.57
2023-04-21T00:50:05.801Z,15.77
2023-04-21T00:52:34.246Z,15.53
2023-04-21T00:55:02.609Z,15.97
2023-04-21T00:57:31.017Z,17.00
2023-04-21T00:59:59.569Z,16.97
2023-04-21T01:02:28.804Z,16.67
2023-04-21T01:04:58.906Z,16.97
2023-04-21T01:07:27.292Z,18.07
2023-04-21T01:09:56.139Z,17.10
2023-04-21T01:12:24.649Z,16.87
2023-04-21T01:14:53.080Z,18.10
2023-04-21T01:17:21.588Z,17.40
2023-04-21T01:19:49.965Z,17.10
2023-04-21T01:22:19.955Z,16.77
2023-04-21T01:24:49.048Z,17.17
2023-04-21T01:27:18.688Z,17.67
2023-04-21T01:29:47.831Z,17.10
2023-04-21T01:32:17.155Z,17.60
2023-04-21T01:34:45.796Z,17.03
2023-04-21T01:37:14.444Z,18.23
2023-04-21T01:39:44.378Z,17.30
2023-04-21T01:42:12.849Z,18.13
2023-04-21T01:44:41.263Z,18.00
2023-04-21T01:47:09.943Z,18.20
2023-04-21T01:49:38.463Z,17.87
2023-04-21T01:52:07.114Z,18.77
2023-04-21T01:54:35.490Z,18.40
2023-04-21T01:57:05.652Z,17.97
2023-04-21T01:59:34.102Z,19.33
2023-04-21T02:02:03.168Z,18.87
2023-04-21T02:04:31.738Z,19.63
2023-04-21T02:07:00.231Z,17.93
2023-04-21T02:09:28.599Z,19.07
2023-04-21T02:11:57.447Z,19.23
2023-04-21T02:14:27.362Z,20.17
2023-04-21T02:16:56.871Z,19.73
2023-04-21T02:19:25.381Z,20.07
2023-04-21T02:21:53.833Z,20.27
2023-04-21T02:24:22.283Z,19.23
2023-04-21T02:26:50.826Z,19.50
2023-04-21T02:29:19.596Z,19.83
2023-04-21T02:32:00.668Z,20.00
2023-04-21T02:34:33.927Z,19.70
2023-04-21T02:37:02.563Z,19.13
2023-04-21T02:39:30.959Z,20.50
2023-04-21T02:41:59.721Z,20.63
2023-04-21T02:44:28.226Z,19.73
2023-04-21T02:46:58.130Z,19.90
2023-04-21T02:49:26.693Z,19.93
2023-04-21T02:51:55.313Z,20.03
2023-04-21T02:54:24.370Z,19.27
2023-04-21T02:56:52.908Z,19.33
2023-04-21T02:59:22.090Z,19.67
2023-04-21T03:01:51.110Z,19.53
2023-04-21T03:04:22.301Z,19.67
2023-04-21T03:06:50.881Z,19.67
2023-04-21T03:09:19.677Z,20.23
2023-04-21T03:11:48.339Z,19.83
2023-04-21T03:14:16.792Z,20.20
2023-04-21T03:16:45.287Z,19.47
2023-04-21T03:19:13.735Z,19.47
2023-04-21T03:21:43.615Z,18.90
2023-04-21T03:24:12.119Z,19.00
2023-04-21T03:26:41.286Z,19.67
2023-04-21T03:29:12.801Z,18.90
2023-04-21T03:31:41.310Z,18.67
2023-04-21T03:34:09.968Z,18.97
2023-04-21T03:36:38.348Z,20.20
2023-04-21T03:39:19.382Z,20.57
2023-04-21T03:41:48.770Z,20.10
2023-04-21T03:44:17.189Z,21.47
2023-04-21T03:46:45.808Z,20.43
2023-04-21T03:49:14.231Z,21.37
2023-04-21T03:51:49.074Z,21.60
2023-04-21T03:54:18.843Z,21.83
2023-04-21T03:56:47.325Z,21.37
2023-04-21T03:59:15.709Z,23.07
2023-04-21T04:01:44.264Z,22.63
2023-04-21T04:04:13.142Z,22.63
2023-04-21T04:06:42.085Z,21.67
2023-04-21T04:09:10.475Z,23.30
2023-04-21T04:11:40.275Z,24.40
2023-04-21T04:14:08.705Z,22.87
2023-04-21T04:16:37.502Z,24.03
2023-04-21T04:19:05.863Z,24.30
2023-04-21T04:21:34.419Z,25.17
2023-04-21T04:24:05.388Z,25.73
2023-04-21T04:26:35.584Z,24.90
2023-04-21T04:29:06.197Z,24.53
2023-04-21T04:31:34.765Z,25.13
2023-04-21T04:34:03.456Z,25.97
2023-04-21T04:36:32.338Z,25.33
2023-04-21T04:39:00.917Z,24.53
2023-04-21T04:41:33.708Z,25.27
2023-04-21T04:44:05.171Z,25.77
2023-04-21T04:46:35.301Z,25.80
2023-04-21T04:49:03.706Z,26.20
2023-04-21T04:51:32.817Z,25.27
2023-04-21T04:54:01.222Z,26.57
2023-04-21T04:56:29.651Z,27.40
2023-04-21T04:58:58.066Z,26.87
2023-04-21T05:01:30.326Z,26.93
2023-04-21T05:04:00.388Z,26.73
2023-04-21T05:06:28.902Z,28.80
2023-04-21T05:08:57.304Z,28.73
2023-04-21T05:11:25.689Z,29.20
2023-04-21T05:13:54.365Z,28.17
2023-04-21T05:16:22.908Z,27.40
2023-04-21T05:18:54.009Z,27.33
2023-04-21T05:21:28.407Z,28.73
2023-04-21T05:23:57.177Z,28.33
2023-04-21T05:26:25.696Z,29.20
2023-04-21T05:28:54.130Z,28.00
2023-04-21T05:31:22.518Z,27.70
2023-04-21T05:33:50.974Z,29.23
2023-04-21T05:36:20.246Z,28.37
2023-04-21T05:38:50.012Z,28.07
2023-04-21T05:41:18.853Z,29.13
2023-04-21T05:43:47.666Z,29.03
2023-04-21T05:46:16.141Z,30.33
2023-04-21T05:48:44.710Z,31.00
2023-04-21T05:51:13.441Z,30.87
2023-04-21T05:53:41.912Z,31.00
2023-04-21T05:56:11.713Z,29.87
2023-04-21T05:58:40.238Z,30.57
2023-04-21T06:01:08.797Z,31.10
2023-04-21T06:03:37.287Z,30.97
2023-04-21T06:06:06.331Z,30.17
2023-04-21T06:08:34.914Z,30.67
2023-04-21T06:11:03.316Z,31.63
2023-04-21T06:13:33.055Z,31.50
2023-04-21T06:16:01.592Z,31.83
2023-04-21T06:18:30.027Z,32.57
2023-04-21T06:20:58.549Z,32.60
2023-04-21T06:23:26.951Z,32.47
2023-04-21T06:26:04.190Z,34.13
2023-04-21T06:28:34.260Z,33.70
2023-04-21T06:31:02.877Z,34.23
2023-04-21T06:33:31.302Z,35.13
2023-04-21T06:35:59.642Z,34.40
2023-04-21T06:38:28.195Z,34.00
2023-04-21T06:40:56.569Z,34.83
2023-04-21T06:43:24.959Z,35.00
2023-04-21T06:45:54.662Z,35.47
2023-04-21T06:48:24.492Z,36.37
2023-04-21T06:50:52.925Z,36.37
2023-04-21T06:53:21.806Z,35.07
2023-04-21T06:55:50.330Z,37.27
2023-04-21T06:58:21.146Z,36.20
2023-04-21T07:00:50.348Z,36.83
2023-04-21T07:03:20.221Z,37.33
2023-04-21T07:05:48.767Z,36.47
2023-04-21T07:08:17.810Z,38.20
2023-04-21T07:10:46.398Z,36.87
2023-04-21T07:13:15.935Z,36.90
2023-04-21T07:15:44.280Z,37.60
2023-04-21T07:18:12.950Z,38.30
2023-04-21T07:20:43.203Z,37.83
2023-04-21T07:23:11.566Z,37.40
2023-04-21T07:25:39.900Z,37.00
2023-04-21T07:28:08.286Z,37.47
2023-04-21T07:30:36.894Z,38.10
2023-04-21T07:33:05.376Z,38.30
2023-04-21T07:35:33.820Z,38.30
2023-04-21T07:38:03.761Z,38.83
2023-04-21T07:40:32.359Z,38.23
2023-04-21T07:43:00.852Z,38.30
2023-04-21T07:45:29.253Z,38.73
2023-04-21T07:47:57.673Z,39.30
2023-04-21T07:50:26.190Z,39.30
2023-04-21T07:52:54.683Z,38.90
2023-04-21T07:55:24.421Z,38.67
2023-04-21T07:57:52.743Z,38.97
2023-04-21T08:00:21.601Z,39.43
2023-04-21T08:02:50.081Z,38.57
2023-04-21T08:05:18.732Z,39.30
2023-04-21T08:07:47.138Z,40.30
2023-04-21T08:10:16.561Z,38.73
2023-04-21T08:12:46.585Z,38.73
2023-04-21T08:15:15.644Z,38.43
2023-04-21T08:17:44.037Z,38.10
2023-04-21T08:20:12.950Z,37.77
2023-04-21T08:22:41.456Z,37.10
2023-04-21T08:25:09.963Z,37.63
2023-04-21T08:27:40.144Z,36.57
2023-04-21T08:30:10.814Z,37.43
2023-04-21T08:32:39.296Z,36.57
2023-04-21T08:35:08.389Z,39.43
2023-04-21T08:37:38.506Z,36.87
2023-04-21T08:40:11.729Z,36.90
2023-04-21T08:42:45.446Z,36.47
2023-04-21T08:45:30.886Z,36.90
2023-04-21T08:48:06.137Z,36.60
2023-04-21T08:50:35.064Z,36.03
2023-04-21T08:53:08.685Z,37.17
2023-04-21T08:55:37.717Z,36.77
2023-04-21T08:58:12.298Z,36.40
2023-04-21T09:00:42.506Z,34.47
2023-04-21T09:03:23.182Z,33.77
2023-04-21T09:05:59.123Z,34.47
2023-04-21T09:08:28.886Z,33.20
2023-04-21T09:10:57.486Z,33.13
2023-04-21T09:13:31.188Z,34.50
2023-04-21T09:16:01.071Z,33.87
2023-04-21T09:18:31.222Z,31.77
2023-04-21T09:21:07.019Z,31.33
2023-04-21T09:23:41.421Z,31.43
2023-04-21T09:26:09.820Z,31.50
2023-04-21T09:28:38.112Z,31.60
2023-04-21T09:31:07.981Z,30.27
2023-04-21T09:33:45.700Z,30.77
2023-04-21T09:36:22.735Z,29.77
2023-04-21T09:41:32.332Z,29.50
2023-04-21T09:44:01.641Z,28.53
2023-04-21T09:46:32.275Z,26.90
2023-04-21T09:49:01.571Z,25.63
2023-04-21T09:51:55.723Z,25.63
2023-04-21T09:54:28.974Z,25.33
2023-04-21T09:56:58.494Z,26.07
2023-04-21T09:59:27.758Z,26.03
2023-04-21T10:01:57.765Z,25.70
2023-04-21T10:04:26.727Z,25.87
2023-04-21T10:06:55.583Z,24.43
2023-04-21T10:09:24.547Z,26.57
2023-04-21T10:11:53.448Z,25.53
2023-04-21T10:14:22.081Z,25.80
2023-04-21T10:16:59.086Z,24.53
2023-04-21T10:19:27.778Z,24.10
2023-04-21T10:21:57.553Z,24.87
2023-04-21T10:24:25.929Z,23.67
2023-04-21T10:26:55.269Z,23.00
2023-04-21T10:29:40.270Z,21.77
2023-04-21T10:32:14.020Z,21.17
2023-04-21T10:34:42.563Z,20.20
2023-04-21T10:37:12.916Z,18.93
2023-04-21T10:39:44.954Z,19.43
2023-04-21T10:42:24.647Z,19.07
2023-04-21T10:44:54.076Z,19.27
2023-04-21T10:47:29.807Z,19.00
2023-04-21T10:49:58.448Z,17.70
2023-04-21T10:52:33.747Z,18.07
2023-04-21T10:55:10.574Z,17.93
2023-04-21T10:57:39.072Z,17.87
2023-04-21T11:00:09.191Z,17.27
2023-04-21T11:02:40.541Z,16.33
2023-04-21T11:05:10.835Z,15.40
2023-04-21T11:07:39.224Z,14.87
2023-04-21T11:10:08.440Z,14.50
2023-04-21T11:12:37.715Z,13.33
2023-04-21T11:15:08.527Z,14.30
2023-04-21T11:17:38.185Z,13.13
2023-04-21T11:20:09.070Z,13.40
2023-04-21T11:22:38.657Z,12.40
2023-04-21T11:25:07.545Z,14.13
2023-04-21T11:27:35.916Z,13.63
2023-04-21T11:30:05.925Z,13.20
2023-04-21T11:32:35.591Z,13.90
2023-04-21T11:35:06.329Z,13.63
2023-04-21T11:37:36.141Z,13.37
2023-04-21T11:40:06.657Z,13.47
2023-04-21T11:42:35.004Z,14.40
2023-04-21T11:45:04.284Z,13.70
2023-04-21T11:47:33.077Z,13.27
2023-04-21T11:50:02.507Z,13.70
2023-04-21T11:52:32.964Z,14.23
2023-04-21T11:55:03.678Z,13.33
2023-04-21T11:57:32.593Z,13.97
2023-04-21T12:00:01.170Z,13.37
2023-04-21T12:02:30.283Z,14.70
2023-04-21T12:05:00.378Z,13.57
2023-04-21T12:07:29.231Z,14.10
2023-04-21T12:09:57.788Z,14.50
2023-04-21T12:12:27.875Z,14.30
2023-04-21T12:14:56.334Z,15.63
2023-04-21T12:17:24.883Z,16.10
2023-04-21T12:19:53.379Z,16.37
2023-04-21T12:22:23.548Z,15.13
2023-04-21T12:24:51.961Z,15.00
2023-04-21T12:27:20.373Z,14.83
2023-04-21T12:29:50.116Z,15.13
2023-04-21T12:32:18.579Z,14.77
2023-04-21T12:34:47.172Z,14.47
2023-04-21T12:37:15.988Z,14.83
2023-04-21T12:39:44.537Z,14.93
2023-04-21T12:42:12.991Z,14.43
2023-04-21T12:44:41.758Z,14.83
2023-04-21T12:47:11.553Z,14.53
2023-04-21T12:49:39.923Z,13.93
2023-04-21T12:52:08.381Z,14.10
2023-04-21T12:54:36.931Z,14.20
2023-04-21T12:57:06.430Z,13.10
2023-04-21T12:59:34.845Z,13.10
2023-04-21T13:02:03.307Z,12.23
2023-04-21T13:04:33.605Z,12.43
2023-04-21T13:07:02.426Z,12.17
2023-04-21T13:09:31.747Z,11.77
2023-04-21T13:12:01.926Z,11.23
2023-04-21T13:14:30.438Z,11.53
2023-04-21T13:16:58.852Z,11.47
2023-04-21T13:19:28.682Z,12.90
2023-04-21T13:21:58.916Z,11.23
2023-04-21T13:24:27.755Z,11.10
2023-04-21T13:26:57.352Z,10.43
2023-04-21T13:29:29.442Z,10.47
2023-04-21T13:31:58.473Z,11.23
2023-04-21T13:34:26.986Z,10.77
2023-04-21T13:36:56.263Z,10.83
2023-04-21T13:39:26.515Z,10.73
2023-04-21T13:41:55.108Z,10.37
2023-04-21T13:44:23.557Z,10.30
2023-04-21T13:46:54.071Z,10.27
2023-04-21T13:49:22.574Z,10.30
2023-04-21T13:51:51.043Z,9.70
2023-04-21T13:54:19.434Z,11.07
2023-04-21T13:56:49.359Z,11.60
2023-04-21T13:59:17.938Z,12.60
2023-04-21T14:01:46.674Z,11.43
2023-04-21T14:04:15.363Z,11.77
2023-04-21T14:06:44.048Z,11.33
2023-04-21T14:09:12.657Z,11.50
2023-04-21T14:11:41.178Z,11.77
2023-04-21T14:14:10.980Z,13.20
2023-04-21T14:16:39.765Z,12.23
2023-04-21T14:19:08.451Z,12.90
2023-04-21T14:21:37.105Z,12.90
2023-04-21T14:24:08.856Z,13.17
2023-04-21T14:26:37.694Z,12.87
2023-04-21T14:29:06.099Z,12.63
2023-04-21T14:31:36.289Z,12.73
2023-04-21T14:34:04.767Z,12.70
2023-04-21T14:36:33.451Z,13.77
2023-04-21T14:39:01.827Z,13.60
2023-04-21T14:41:30.886Z,13.60
2023-04-21T14:44:00.476Z,14.00
2023-04-21T14:46:29.445Z,14.30
2023-04-21T14:48:59.419Z,12.93
2023-04-21T14:51:32.245Z,13.10
2023-04-21T14:54:00.883Z,13.93
2023-04-21T14:56:29.335Z,13.97
2023-04-21T14:58:57.955Z,12.97
2023-04-21T15:01:26.539Z,13.33
2023-04-21T15:03:57.920Z,13.03
2023-04-21T15:06:28.516Z,13.70
2023-04-21T15:08:57.013Z,13.37
2023-04-21T15:11:25.500Z,13.97
2023-04-21T15:14:00.361Z,14.23
2023-04-21T15:16:28.742Z,13.77
2023-04-21T15:18:57.261Z,14.17
2023-04-21T15:21:30.082Z,13.97
2023-04-21T15:23:58.610Z,14.60
2023-04-21T15:26:26.992Z,15.37
2023-04-21T15:28:55.427Z,14.77
2023-04-21T15:31:23.982Z,15.77
2023-04-21T15:33:52.720Z,16.33
2023-04-21T15:36:21.538Z,16.27
2023-04-21T15:38:51.361Z,17.40
2023-04-21T15:41:19.820Z,18.10
2023-04-21T15:43:48.292Z,17.20
2023-04-21T15:46:16.765Z,17.17
2023-04-21T15:48:45.506Z,17.97
2023-04-21T15:51:14.472Z,17.90
2023-04-21T15:53:47.556Z,18.33
2023-04-21T15:56:17.817Z,18.27
2023-04-21T15:58:46.531Z,18.60
2023-04-21T16:01:15.609Z,19.13
2023-04-21T16:03:44.335Z,19.07
2023-04-21T16:06:13.089Z,19.03
2023-04-21T16:08:41.568Z,19.40
2023-04-21T16:11:09.933Z,19.23
2023-04-21T16:13:39.732Z,18.87
2023-04-21T16:16:08.916Z,18.67
2023-04-21T16:18:38.184Z,20.03
2023-04-21T16:21:06.721Z,20.63
2023-04-21T16:23:35.396Z,20.00
2023-04-21T16:26:05.949Z,19.23
2023-04-21T16:28:35.031Z,18.70
2023-04-21T16:31:05.078Z,18.67
2023-04-21T16:33:33.616Z,19.70
2023-04-21T16:36:02.100Z,20.03
2023-04-21T16:38:30.564Z,19.77
2023-04-21T16:40:59.056Z,19.63
2023-04-21T16:43:27.771Z,19.27
2023-04-21T16:45:56.369Z,19.77
2023-04-21T16:48:26.267Z,19.17
2023-04-21T16:50:55.160Z,19.83
2023-04-21T16:53:25.558Z,19.90
2023-04-21T16:55:54.200Z,20.53
2023-04-21T16:58:24.681Z,19.20
2023-04-21T17:00:53.254Z,19.07
2023-04-21T17:03:21.895Z,19.73
2023-04-21T17:05:51.860Z,20.23
2023-04-21T17:08:20.411Z,19.87
2023-04-21T17:10:48.936Z,19.00
2023-04-21T17:13:17.346Z,20.63
2023-04-21T17:15:45.790Z,20.50
2023-04-21T17:18:14.207Z,21.00
2023-04-21T17:20:45.931Z,20.53
2023-04-21T17:23:15.763Z,20.50
2023-04-21T17:25:44.252Z,21.20
2023-04-21T17:28:14.786Z,20.93
2023-04-21T17:30:43.151Z,21.00
2023-04-21T17:33:16.947Z,20.77
2023-04-21T17:35:55.746Z,21.67
2023-04-21T17:38:32.221Z,21.10
2023-04-21T17:41:01.984Z,20.57
2023-04-21T17:43:30.674Z,20.57
2023-04-21T17:45:59.153Z,20.33
2023-04-21T17:48:28.001Z,20.43
2023-04-21T17:50:56.446Z,20.93
2023-04-21T17:53:24.960Z,22.47
2023-04-21T17:55:54.819Z,21.17
2023-04-21T17:58:23.358Z,20.93
2023-04-21T18:00:51.808Z,21.57
2023-04-21T18:03:20.536Z,21.13
2023-04-21T18:05:49.048Z,21.43
2023-04-21T18:08:17.474Z,20.57
2023-04-21T18:10:46.006Z,21.30
2023-04-21T18:13:15.765Z,21.57
2023-04-21T18:15:44.296Z,20.17
2023-04-21T18:18:13.180Z,19.27
2023-04-21T18:20:41.985Z,19.33
2023-04-21T18:23:10.374Z,19.00
2023-04-21T18:25:41.950Z,18.53
2023-04-21T18:28:12.813Z,15.87
2023-04-21T18:30:42.948Z,10.80
2023-04-21T18:33:11.960Z,8.90
2023-04-21T18:35:40.525Z,8.67
2023-04-21T18:38:10.569Z,10.70
2023-04-21T18:40:40.581Z,10.23
2023-04-21T18:43:09.781Z,10.23
2023-04-21T18:45:38.625Z,11.03
2023-04-21T18:48:08.617Z,10.83
2023-04-21T18:50:40.049Z,10.97
2023-04-21T18:53:09.245Z,10.67
2023-04-21T18:55:37.892Z,10.60
2023-04-21T18:58:06.416Z,11.17
2023-04-21T19:00:37.548Z,10.87
2023-04-21T19:03:07.783Z,10.90
2023-04-21T19:05:37.720Z,12.43
2023-04-21T19:08:06.313Z,12.97
2023-04-21T19:10:35.556Z,11.30
2023-04-21T19:13:04.325Z,10.57
2023-04-21T19:15:32.713Z,9.37
2023-04-21T19:18:01.262Z,9.70
2023-04-21T19:20:32.452Z,9.47
2023-04-21T19:23:01.314Z,10.30
2023-04-21T19:25:29.692Z,9.97
2023-04-21T19:27:58.165Z,10.10
2023-04-21T19:30:26.529Z,10.40
2023-04-21T19:32:54.907Z,11.00
2023-04-21T19:35:23.311Z,10.73
2023-04-21T19:37:53.253Z,10.20
2023-04-21T19:40:21.856Z,10.30
2023-04-21T19:42:50.325Z,9.80
2023-04-21T19:45:18.752Z,9.50
2023-04-21T19:47:47.897Z,8.67
2023-04-21T19:50:16.466Z,8.97
2023-04-21T19:52:46.549Z,8.77
2023-04-21T19:55:16.511Z,9.20
2023-04-21T19:57:44.919Z,9.33
2023-04-21T20:00:14.332Z,9.10
2023-04-21T20:02:43.444Z,9.90
2023-04-21T20:05:11.973Z,9.70
2023-04-21T20:07:40.734Z,10.40
2023-04-21T20:10:09.327Z,11.10
2023-04-21T20:12:39.100Z,11.17
2023-04-21T20:15:08.381Z,12.47
2023-04-21T20:17:36.977Z,12.43
2023-04-21T20:20:07.076Z,12.47
2023-04-21T20:22:37.062Z,12.43
2023-04-21T20:25:06.077Z,13.83
2023-04-21T20:27:34.484Z,14.20
2023-04-21T20:30:04.530Z,14.10
2023-04-21T20:32:33.002Z,13.73
2023-04-21T20:35:02.210Z,13.03
2023-04-21T20:37:33.527Z,13.70
2023-04-21T20:40:04.553Z,13.90
2023-04-21T20:42:33.449Z,13.53
2023-04-21T20:45:03.639Z,13.40
2023-04-21T20:47:33.954Z,13.70
2023-04-21T20:50:02.426Z,13.13
2023-04-21T20:52:30.928Z,12.73
2023-04-21T20:54:59.392Z,13.50
2023-04-21T20:57:29.781Z,13.07
2023-04-21T20:59:58.142Z,12.13
2023-04-21T21:02:26.737Z,10.73
2023-04-21T21:04:57.470Z,10.20
2023-04-21T21:07:25.866Z,9.10
2023-04-21T21:09:54.257Z,8.90
2023-04-21T21:12:22.684Z,8.40
2023-04-21T21:14:51.144Z,8.83
2023-04-21T21:17:19.846Z,9.37
2023-04-21T21:19:49.266Z,9.03
2023-04-21T21:22:19.122Z,8.17
2023-04-21T21:24:48.890Z,9.00
2023-04-21T21:27:17.251Z,8.70
2023-04-21T21:29:45.701Z,8.80
2023-04-21T21:32:14.270Z,9.20
2023-04-21T21:34:42.615Z,9.00
2023-04-21T21:37:10.992Z,8.83
2023-04-21T21:39:40.921Z,9.20
2023-04-21T21:42:11.813Z,9.53
2023-04-21T21:44:40.163Z,9.40
2023-04-21T21:47:08.947Z,9.20
2023-04-21T21:49:38.405Z,10.83
2023-04-21T21:52:07.077Z,10.30
2023-04-21T21:54:35.791Z,9.67
2023-04-21T21:57:08.393Z,9.57
2023-04-21T21:59:37.135Z,9.73
2023-04-21T22:02:05.960Z,10.50
2023-04-21T22:04:34.526Z,8.63
2023-04-21T22:07:03.972Z,9.93
2023-04-21T22:09:32.404Z,10.10
2023-04-21T22:12:01.199Z,10.03
2023-04-21T22:14:31.321Z,10.30
2023-04-21T22:16:59.693Z,10.27
2023-04-21T22:19:28.993Z,10.23
2023-04-21T22:21:57.462Z,10.93
2023-04-21T22:24:25.845Z,10.33
2023-04-21T22:26:54.214Z,11.07
2023-04-21T22:29:22.539Z,11.97
2023-04-21T22:31:52.521Z,12.00
2023-04-21T22:34:21.058Z,13.43
2023-04-21T22:36:49.379Z,13.43
2023-04-21T22:39:17.823Z,13.50
2023-04-21T22:41:46.310Z,14.07
2023-04-21T22:44:14.789Z,13.87
2023-04-21T22:46:43.386Z,14.27
2023-04-21T22:49:13.373Z,15.23
2023-04-21T22:51:42.417Z,16.20
2023-04-21T22:54:11.015Z,14.80
2023-04-21T22:56:39.410Z,15.60
2023-04-21T22:59:07.914Z,17.20
2023-04-21T23:01:36.465Z,16.17
2023-04-21T23:04:05.070Z,16.07
2023-04-21T23:06:35.094Z,16.37
2023-04-21T23:09:04.137Z,16.60
2023-04-21T23:11:32.884Z,16.90
2023-04-21T23:14:01.448Z,17.67
2023-04-21T23:16:29.892Z,17.23
2023-04-21T23:18:58.329Z,17.73
2023-04-21T23:21:26.917Z,17.83
2023-04-21T23:23:58.254Z,18.20
2023-04-21T23:26:26.944Z,18.00
2023-04-21T23:28:55.292Z,17.60
2023-04-21T23:31:23.780Z,17.60
2023-04-21T23:33:52.246Z,18.07
2023-04-21T23:36:20.681Z,17.77
2023-04-21T23:38:49.168Z,17.27
2023-04-21T23:41:19.072Z,17.90
2023-04-21T23:43:47.475Z,18.60
2023-04-21T23:46:16.571Z,17.43
2023-04-21T23:48:45.232Z,19.10
2023-04-21T23:51:13.827Z,19.17
2023-04-21T23:53:42.289Z,18.73
2023-04-21T23:56:11.015Z,18.30
2023-04-21T23:58:40.776Z,18.77
